CST,Max TemperatureF,Mean TemperatureF,Min TemperatureF,Max Dew PointF,MeanDew PointF,Min DewpointF,Max Humidity, Mean Humidity, Min Humidity, Max Sea Level PressureIn, Mean Sea Level PressureIn, Min Sea Level PressureIn, Max VisibilityMiles, Mean VisibilityMiles, Min VisibilityMiles, Max Wind SpeedMPH, Mean Wind SpeedMPH, Max Gust SpeedMPH,PrecipitationIn, CloudCover, Events, WindDirDegrees
2013-1-1,14,5,-4,10,0,-6,92,75,57,30.21,30.15,30.07,10,10,10,9,5,,0.00,3,,273
2013-1-2,21,14,8,18,10,3,93,79,63,30.06,30.01,29.94,10,10,4,10,7,,0.00,5,,200
2013-1-3,21,13,5,21,14,3,100,90,74,30.21,30.13,30.02,10,6,2,15,9,17,0.00,5,,274
2013-1-4,28,17,6,18,14,5,100,80,64,30.14,30.09,30.04,10,10,10,17,10,20,0.00,0,,243
2013-1-5,32,23,14,30,21,12,100,90,80,30.13,29.96,29.85,10,9,5,17,8,24,0.00,3,,206
2013-1-6,24,19,14,19,15,10,93,82,68,30.21,30.10,29.90,10,9,4,13,9,,0.00,3,,268
2013-1-7,35,24,14,28,21,12,100,81,64,30.16,30.02,29.95,10,10,10,24,11,33,0.00,0,,211
2013-1-8,37,29,21,32,28,21,100,91,75,30.00,29.93,29.84,10,8,3,26,9,30,0.00,1,,175
2013-1-9,35,29,23,28,25,19,93,81,60,30.41,30.19,29.91,10,10,10,25,13,33,0.00,1,,248
2013-1-10,39,31,23,34,26,19,100,82,45,30.41,30.15,29.76,10,8,2,20,10,25,0.03,3,,130
2013-1-11,42,38,33,43,39,34,100,100,100,29.74,29.59,29.49,10,2,0,15,8,21,0.00,7,,162
2013-1-12,46,30,14,43,22,9,100,82,68,29.98,29.81,29.49,10,10,10,31,19,41,0.00,6,,255
2013-1-13,14,10,6,9,4,3,85,77,67,30.19,30.04,29.93,10,9,4,14,9,20,0.00,6,,295
2013-1-14,21,13,5,12,8,1,92,79,63,30.36,30.32,30.19,10,10,10,17,7,24,0.00,1,,244
2013-1-15,30,22,14,16,13,10,93,71,51,30.33,30.19,29.95,10,10,10,16,8,21,0.00,0,,202
2013-1-16,33,27,21,32,22,12,100,81,63,30.08,29.85,29.73,10,9,2,21,13,26,0.00,6,,252
2013-1-17,24,18,12,14,7,1,86,65,49,30.35,30.28,30.10,10,10,7,14,8,17,0.00,1,,294
2013-1-18,44,29,14,32,25,12,93,79,61,30.31,29.96,29.77,10,10,7,24,10,32,0.00,3,,200
2013-1-19,42,25,8,32,24,0,100,77,48,30.04,29.79,29.66,10,10,2,33,12,44,0.00,4,,258
2013-1-20,14,8,3,1,-1,-4,85,69,48,30.28,30.20,30.05,10,10,10,21,13,29,0.00,2,,296
2013-1-21,6,0,-5,1,-8,-13,85,71,56,30.23,30.17,30.12,10,8,2,18,13,25,0.00,6,,292
2013-1-22,6,0,-7,-2,-8,-13,84,70,61,30.31,30.25,30.21,10,10,10,10,6,,0.00,2,,280
2013-1-23,19,10,0,14,3,-11,92,74,60,30.44,30.18,30.04,10,7,2,24,10,34,0.00,6,,274
2013-1-24,12,4,-4,5,-4,-11,78,68,57,30.58,30.45,30.21,10,10,10,13,8,22,0.00,3,,89
2013-1-25,23,16,8,18,11,3,93,78,63,30.20,30.03,29.91,10,8,1,20,11,26,0.00,6,,262
2013-1-26,23,13,3,14,7,0,92,70,54,30.34,30.25,30.20,10,10,10,15,6,21,0.00,3,,166
2013-1-27,32,28,23,32,24,14,100,85,64,30.21,30.00,29.77,10,6,1,18,11,26,0.10,8,,142
2013-1-28,33,32,32,34,32,32,100,100,100,29.91,29.82,29.64,7,2,0,20,3,24,0.06,8,,119
2013-1-29,44,38,32,45,37,32,100,100,100,29.66,29.54,29.50,10,3,0,23,12,28,0.14,8,,326
2013-1-30,32,22,12,32,21,7,100,94,79,29.63,29.48,29.40,10,4,0,25,16,29,0.00,8,,329
2013-1-31,12,4,-4,10,1,-8,92,79,72,30.13,29.86,29.63,10,6,2,21,13,24,0.00,7,,292